Time;durP1;ratioP1;P1;durP2;ratioP2;P2;SDS_P1;SDS_P2;PMS_P1;PMS_P2;Temp;Humidity;BMP_temperature;BMP_pressure;BME280_temperature;BME280_humidity;BME280_pressure;Samples;Min_cycle;Max_cycle;Signal;HPM_P1;HPM_P2
2022/04/29 00:00:11;;;;;;;18.77;9.38;;;;;;;12.58;72.62;102529.38;5066297;28;20098;-72
2022/04/29 00:02:40;;;;;;;23.33;10.27;;;;;;;12.53;73.29;102533.22;5062276;28;20054;-71
2022/04/29 00:05:08;;;;;;;22.73;9.80;;;;;;;12.52;74.11;102536.41;5063531;28;20825;-72
2022/04/29 00:07:38;;;;;;;22.80;9.98;;;;;;;12.45;73.88;102536.22;5075721;28;20131;-73
2022/04/29 00:10:06;;;;;;;23.08;9.48;;;;;;;12.44;74.86;102542.97;5068599;28;20080;-72
2022/04/29 00:12:33;;;;;;;22.95;10.00;;;;;;;12.44;75.02;102538.22;5070109;28;20057;-71
2022/04/29 00:15:00;;;;;;;20.42;10.52;;;;;;;12.41;74.40;102538.13;5065640;28;20139;-72
2022/04/29 00:17:26;;;;;;;22.52;10.50;;;;;;;12.38;74.69;102538.88;5070625;28;20567;-71
2022/04/29 00:19:53;;;;;;;27.08;10.90;;;;;;;12.34;76.25;102541.59;5069181;28;20060;-72
2022/04/29 00:22:21;;;;;;;23.42;10.57;;;;;;;12.32;76.66;102543.13;5065037;28;20072;-72
2022/04/29 00:24:47;;;;;;;20.08;10.02;;;;;;;12.25;76.70;102531.88;5074335;28;20476;-71
2022/04/29 00:27:14;;;;;;;20.05;10.32;;;;;;;12.27;75.80;102532.31;5070590;28;20509;-71
2022/04/29 00:29:40;;;;;;;23.65;10.02;;;;;;;12.25;77.04;102534.66;5071503;28;20528;-71
2022/04/29 00:32:07;;;;;;;23.23;9.93;;;;;;;12.20;77.98;102541.31;5071216;28;20057;-72
2022/04/29 00:34:34;;;;;;;20.17;9.80;;;;;;;12.09;79.67;102536.69;5074170;28;20048;-73
2022/04/29 00:37:01;;;;;;;26.23;10.32;;;;;;;12.07;77.37;102533.47;5066694;28;20044;-71
2022/04/29 00:39:27;;;;;;;22.88;9.95;;;;;;;12.07;77.25;102544.56;5068759;28;20055;-73
2022/04/29 00:41:54;;;;;;;26.30;10.60;;;;;;;12.03;77.94;102544.50;5070053;28;20048;-71
2022/04/29 00:44:20;;;;;;;21.58;9.60;;;;;;;11.95;79.54;102539.94;5062868;28;20059;-71
2022/04/29 00:46:47;;;;;;;22.42;10.32;;;;;;;11.90;78.93;102522.78;5061569;28;20059;-71
2022/04/29 00:49:15;;;;;;;19.10;9.13;;;;;;;11.84;79.23;102527.00;5069560;28;20061;-73
2022/04/29 00:51:45;;;;;;;18.67;10.00;;;;;;;11.78;79.88;102528.47;5070110;28;20084;-72
2022/04/29 00:54:21;;;;;;;22.40;10.13;;;;;;;11.72;79.06;102516.03;5061930;28;20128;-71
2022/04/29 00:56:51;;;;;;;21.38;9.77;;;;;;;11.69;80.03;102514.81;5064950;28;20147;-71
2022/04/29 00:59:42;;;;;;;22.60;8.82;;;;;;;11.64;81.37;102511.50;5067572;28;20056;-71
2022/04/29 01:02:10;;;;;;;20.55;8.88;;;;;;;11.59;79.60;102508.97;5065059;28;20072;-71
2022/04/29 01:04:42;;;;;;;23.88;8.68;;;;;;;11.57;81.15;102514.06;5059908;28;20045;-71
2022/04/29 01:07:08;;;;;;;23.67;9.52;;;;;;;11.45;81.64;102508.66;5067936;28;20143;-72
2022/04/29 01:09:35;;;;;;;19.13;8.45;;;;;;;11.43;82.53;102508.19;5070054;28;20055;-71
2022/04/29 01:12:02;;;;;;;19.45;8.43;;;;;;;11.40;82.04;102503.38;5067457;28;20465;-71
2022/04/29 01:14:28;;;;;;;20.65;8.30;;;;;;;11.33;82.97;102504.00;5068014;28;20045;-73
2022/04/29 01:16:58;;;;;;;20.95;8.43;;;;;;;11.31;83.09;102506.31;5067795;28;20139;-71
2022/04/29 01:19:25;;;;;;;21.65;8.13;;;;;;;11.33;81.70;102503.19;5065785;28;20052;-72
2022/04/29 01:21:52;;;;;;;20.70;8.00;;;;;;;11.28;82.80;102495.97;5064922;28;20053;-72
2022/04/29 01:24:18;;;;;;;20.08;8.60;;;;;;;11.20;83.13;102499.72;5069026;28;20147;-73
2022/04/29 01:26:45;;;;;;;18.77;7.68;;;;;;;11.15;83.48;102499.19;5070983;28;20423;-72
2022/04/29 01:29:13;;;;;;;22.48;8.23;;;;;;;11.11;82.04;102495.53;5072907;28;20080;-71
2022/04/29 01:31:40;;;;;;;15.00;6.78;;;;;;;11.09;84.15;102487.59;5066529;28;20515;-72
2022/04/29 01:34:06;;;;;;;16.65;7.75;;;;;;;11.00;84.12;102484.19;5067437;28;20053;-73
2022/04/29 01:36:33;;;;;;;17.80;6.75;;;;;;;10.99;85.23;102492.84;5068549;28;20120;-71
2022/04/29 01:38:59;;;;;;;18.52;7.68;;;;;;;10.95;84.51;102486.41;5062177;28;20497;-71
2022/04/29 01:41:26;;;;;;;17.00;7.65;;;;;;;10.89;85.41;102476.75;5065491;28;20515;-72
2022/04/29 01:43:52;;;;;;;19.08;7.68;;;;;;;10.86;85.49;102477.50;5066734;28;20071;-71
2022/04/29 01:46:19;;;;;;;16.80;7.32;;;;;;;10.80;85.68;102474.16;5067422;28;20144;-72
2022/04/29 01:48:45;;;;;;;17.95;7.70;;;;;;;10.80;85.87;102481.69;5067929;28;20063;-71
2022/04/29 01:51:12;;;;;;;16.13;6.88;;;;;;;10.75;85.93;102476.41;5061867;28;20052;-73
2022/04/29 01:53:38;;;;;;;23.67;7.30;;;;;;;10.75;87.36;102476.41;5062093;28;20523;-71
2022/04/29 01:56:05;;;;;;;18.17;8.13;;;;;;;10.68;86.67;102465.97;5066416;28;20057;-71
2022/04/29 01:58:32;;;;;;;23.20;7.32;;;;;;;10.68;87.53;102474.25;5065191;28;20057;-73
2022/04/29 02:00:59;;;;;;;19.40;7.97;;;;;;;10.70;86.83;102473.91;5064068;28;20048;-72
2022/04/29 02:03:25;;;;;;;17.73;7.60;;;;;;;10.61;87.87;102474.09;5063091;28;20052;-72
2022/04/29 02:05:52;;;;;;;19.38;7.57;;;;;;;10.59;87.74;102473.63;5063613;28;20075;-71
2022/04/29 02:08:18;;;;;;;19.92;8.18;;;;;;;10.54;87.59;102466.38;5062322;28;20049;-71
2022/04/29 02:10:45;;;;;;;22.77;7.30;;;;;;;10.50;87.74;102465.47;5061483;28;20055;-71
2022/04/29 02:13:12;;;;;;;21.23;7.13;;;;;;;10.44;88.05;102469.66;5067994;28;20078;-72
2022/04/29 02:15:39;;;;;;;20.48;7.47;;;;;;;10.42;89.00;102469.22;5070076;28;20048;-71
2022/04/29 02:18:07;;;;;;;21.95;7.60;;;;;;;10.41;87.71;102472.34;5068269;28;20090;-71
2022/04/29 02:20:34;;;;;;;6.75;3.03;;;;;;;10.36;89.50;102464.28;5067778;28;20140;-71
2022/04/29 02:23:00;;;;;;;19.15;6.93;;;;;;;10.38;88.18;102465.56;5060123;28;20044;-73
2022/04/29 02:25:27;;;;;;;18.48;7.10;;;;;;;10.32;87.87;102468.91;5060825;28;20047;-71
2022/04/29 02:27:53;;;;;;;19.42;7.20;;;;;;;10.30;87.84;102469.28;5065330;28;20139;-71
2022/04/29 02:30:20;;;;;;;17.45;6.97;;;;;;;10.28;87.49;102468.84;5057278;28;20052;-71
2022/04/29 02:32:46;;;;;;;18.23;6.57;;;;;;;10.22;87.86;102458.38;5071383;28;20054;-71
2022/04/29 02:35:14;;;;;;;15.52;6.82;;;;;;;10.21;87.43;102468.66;5058550;28;20525;-71
2022/04/29 02:37:41;;;;;;;17.00;6.30;;;;;;;10.13;88.88;102466.81;5068103;28;20049;-71
2022/04/29 02:40:08;;;;;;;21.02;7.10;;;;;;;10.13;88.26;102460.50;5071721;28;20139;-72
2022/04/29 02:42:34;;;;;;;17.17;6.47;;;;;;;10.11;87.90;102465.56;5094072;28;20163;-72
2022/04/29 02:45:01;;;;;;;16.70;6.65;;;;;;;10.07;88.90;102459.94;5068575;28;20203;-71
2022/04/29 02:47:28;;;;;;;15.50;6.07;;;;;;;10.03;88.58;102460.97;5067677;28;20048;-72
2022/04/29 02:49:54;;;;;;;15.55;6.40;;;;;;;10.03;88.64;102461.75;5065005;28;20398;-71
2022/04/29 02:52:21;;;;;;;16.55;6.78;;;;;;;10.00;88.03;102472.72;5061341;28;20052;-72
2022/04/29 02:54:47;;;;;;;18.83;6.20;;;;;;;9.99;88.39;102460.84;5066938;28;20052;-71
2022/04/29 02:57:14;;;;;;;24.67;6.28;;;;;;;9.93;88.14;102465.00;5068286;28;20076;-71
2022/04/29 02:59:40;;;;;;;18.80;6.75;;;;;;;9.92;88.66;102468.13;5061137;28;20123;-71
2022/04/29 03:02:08;;;;;;;17.92;7.22;;;;;;;9.93;88.21;102470.53;5067255;28;20048;-71
2022/04/29 03:04:35;;;;;;;17.40;7.43;;;;;;;9.91;88.26;102472.06;5064597;28;20052;-71
2022/04/29 03:07:01;;;;;;;20.60;7.22;;;;;;;9.85;88.64;102465.16;5067403;28;20123;-71
2022/04/29 03:09:28;;;;;;;19.10;5.93;;;;;;;9.90;88.40;102470.47;5067842;28;20106;-72
2022/04/29 03:11:54;;;;;;;20.25;7.05;;;;;;;9.85;87.71;102467.94;5066197;28;20059;-71
2022/04/29 03:14:21;;;;;;;22.63;7.22;;;;;;;9.82;88.34;102465.88;5068123;28;20074;-71
2022/04/29 03:16:49;;;;;;;19.75;6.82;;;;;;;9.70;88.64;102455.66;5067175;28;20501;-71
2022/04/29 03:19:17;;;;;;;19.55;7.07;;;;;;;9.71;87.67;102470.28;5066894;28;20048;-72
2022/04/29 03:21:43;;;;;;;21.40;6.60;;;;;;;9.77;88.51;102466.13;5056502;28;20433;-71
2022/04/29 03:24:10;;;;;;;22.10;6.03;;;;;;;9.72;88.72;102456.09;5047400;28;20497;-71
2022/04/29 03:26:37;;;;;;;20.55;7.00;;;;;;;9.72;89.13;102458.88;5092312;28;20444;-71
2022/04/29 03:29:04;;;;;;;19.00;7.32;;;;;;;9.68;89.24;102460.72;5063222;28;20078;-71
2022/04/29 03:31:31;;;;;;;22.27;7.25;;;;;;;9.69;88.56;102461.53;5057279;28;20523;-72
2022/04/29 03:33:58;;;;;;;22.23;8.00;;;;;;;9.66;88.77;102460.25;5065319;28;20687;-72
2022/04/29 03:36:25;;;;;;;20.63;7.45;;;;;;;9.63;90.00;102460.97;5067120;28;20060;-70
2022/04/29 03:38:52;;;;;;;27.80;8.00;;;;;;;9.62;89.04;102461.34;5066114;28;20211;-72
2022/04/29 03:41:19;;;;;;;19.45;7.13;;;;;;;9.60;89.97;102458.09;5062781;28;20066;-71
2022/04/29 03:43:46;;;;;;;18.30;7.50;;;;;;;9.59;90.24;102462.81;5071830;28;20060;-71
2022/04/29 03:46:12;;;;;;;26.45;7.75;;;;;;;9.61;89.33;102460.50;5071499;28;20053;-71
2022/04/29 03:51:24;;;;;;;25.35;8.43;;;;;;;9.57;89.40;102458.78;5070348;28;20484;-71
2022/04/29 03:53:50;;;;;;;22.17;8.13;;;;;;;9.58;89.82;102457.63;5071551;28;20052;-71
2022/04/29 03:56:17;;;;;;;24.17;7.28;;;;;;;9.55;89.79;102458.34;5073178;28;20135;-71
2022/04/29 03:58:44;;;;;;;20.73;6.78;;;;;;;9.49;90.51;102460.53;5070803;28;20056;-71
2022/04/29 04:01:12;;;;;;;24.13;6.93;;;;;;;9.41;90.25;102442.13;5072151;28;20056;-71
2022/04/29 04:03:40;;;;;;;25.27;8.02;;;;;;;9.42;90.73;102451.22;5067936;28;20053;-71
2022/04/29 04:08:52;;;;;;;22.52;7.97;;;;;;;9.40;90.91;102451.56;5071206;28;20056;-71
2022/04/29 04:11:18;;;;;;;23.77;8.10;;;;;;;9.40;90.83;102446.06;5067440;28;20120;-71
2022/04/29 04:13:46;;;;;;;22.23;8.43;;;;;;;9.43;91.33;102450.06;5071427;28;20052;-71
2022/04/29 04:16:12;;;;;;;23.08;8.07;;;;;;;9.41;91.70;102439.38;5070896;28;20135;-71
2022/04/29 04:18:39;;;;;;;21.40;7.20;;;;;;;9.42;91.26;102434.66;5071435;28;20052;-71
2022/04/29 04:21:06;;;;;;;24.92;8.27;;;;;;;9.41;92.29;102444.88;5066395;28;20056;-70
2022/04/29 04:23:32;;;;;;;23.13;7.95;;;;;;;9.38;92.00;102442.81;5070148;28;20103;-73
2022/04/29 04:25:59;;;;;;;18.17;7.60;;;;;;;9.40;92.19;102448.00;5072075;28;20572;-71
2022/04/29 04:28:25;;;;;;;30.35;8.65;;;;;;;9.39;91.75;102446.41;5070217;28;20139;-75
2022/04/29 04:30:52;;;;;;;24.73;8.27;;;;;;;9.42;92.39;102456.75;5065555;28;20596;-70
2022/04/29 04:33:19;;;;;;;27.38;8.38;;;;;;;9.37;92.89;102466.09;5062870;28;20048;-71
2022/04/29 04:35:45;;;;;;;21.17;8.07;;;;;;;9.38;93.07;102467.69;5070413;28;20044;-70
2022/04/29 04:38:14;;;;;;;23.33;8.73;;;;;;;9.37;92.99;102456.97;5073432;28;20110;-72
2022/04/29 04:40:42;;;;;;;26.75;8.00;;;;;;;9.33;93.80;102453.31;5068731;28;20052;-70
2022/04/29 04:43:11;;;;;;;21.52;7.78;;;;;;;9.29;94.29;102455.97;5065809;28;20061;-71
2022/04/29 04:45:38;;;;;;;24.48;8.32;;;;;;;9.32;93.92;102463.53;5070245;28;20048;-71
2022/04/29 04:48:05;;;;;;;18.55;7.78;;;;;;;9.34;94.55;102455.72;5068575;28;20060;-71
2022/04/29 04:50:32;;;;;;;20.73;7.70;;;;;;;9.36;93.92;102447.09;5068458;28;20557;-70
2022/04/29 04:52:58;;;;;;;21.73;8.48;;;;;;;9.42;94.32;102456.75;5070426;28;20046;-71
2022/04/29 04:55:25;;;;;;;24.67;8.30;;;;;;;9.32;94.42;102451.72;5070240;28;20082;-71
2022/04/29 04:57:52;;;;;;;25.65;9.20;;;;;;;9.29;94.06;102453.22;5070298;28;20049;-70
2022/04/29 05:00:19;;;;;;;22.38;9.00;;;;;;;9.33;95.18;102458.81;5069524;28;20151;-71
2022/04/29 05:02:45;;;;;;;25.58;9.75;;;;;;;9.34;95.01;102458.50;5065132;28;20565;-71
2022/04/29 05:05:12;;;;;;;23.35;9.32;;;;;;;9.38;95.76;102459.41;5069472;28;20058;-71
2022/04/29 05:07:40;;;;;;;25.42;9.55;;;;;;;9.40;95.62;102453.53;5072187;28;20524;-71
2022/04/29 05:10:08;;;;;;;30.63;8.70;;;;;;;9.41;95.82;102464.22;5056231;28;20086;-71
2022/04/29 05:12:45;;;;;;;24.98;9.07;;;;;;;9.43;95.77;102466.66;5071227;28;20082;-70
2022/04/29 05:15:14;;;;;;;22.15;8.50;;;;;;;9.43;95.71;102467.47;5061862;28;20079;-71
2022/04/29 05:17:41;;;;;;;21.65;9.50;;;;;;;9.44;96.11;102471.00;5068015;28;20106;-68
2022/04/29 05:20:10;;;;;;;28.45;9.90;;;;;;;9.44;96.07;102476.53;5070029;28;20056;-73
2022/04/29 05:22:37;;;;;;;24.45;9.15;;;;;;;9.47;96.19;102473.91;5068887;28;20682;-71
2022/04/29 05:25:05;;;;;;;24.00;7.85;;;;;;;9.56;96.77;102469.06;5071721;28;20053;-70
2022/04/29 05:27:32;;;;;;;26.73;10.82;;;;;;;9.62;96.21;102472.38;5071895;28;20045;-73
2022/04/29 05:29:59;;;;;;;29.83;9.80;;;;;;;9.61;96.38;102474.34;5059415;28;20048;-70
2022/04/29 05:32:31;;;;;;;25.73;9.95;;;;;;;9.58;96.46;102472.25;5068347;28;20109;-70
2022/04/29 05:34:59;;;;;;;23.67;8.75;;;;;;;9.60;96.72;102463.63;5068695;28;20599;-70
2022/04/29 05:37:27;;;;;;;23.42;9.13;;;;;;;9.63;96.51;102457.41;5069500;28;20070;-71
2022/04/29 05:42:41;;;;;;;25.50;9.65;;;;;;;9.68;96.88;102460.72;5066083;28;20136;-70
2022/04/29 05:45:08;;;;;;;28.35;9.40;;;;;;;9.69;96.86;102456.00;5055436;28;21683;-70
2022/04/29 05:47:35;;;;;;;25.52;9.32;;;;;;;9.59;97.07;102454.53;5097212;28;20058;-70
2022/04/29 05:50:03;;;;;;;31.98;11.38;;;;;;;9.65;97.35;102460.63;5066614;28;20537;-73
2022/04/29 05:52:30;;;;;;;26.92;9.77;;;;;;;9.68;97.74;102460.72;5062734;28;20114;-72
2022/04/29 05:54:57;;;;;;;24.20;8.85;;;;;;;9.66;98.19;102453.94;5066637;28;20048;-73
2022/04/29 05:57:23;;;;;;;29.15;10.30;;;;;;;9.71;98.15;102454.50;5069452;28;20105;-73
2022/04/29 05:59:50;;;;;;;22.17;8.90;;;;;;;9.72;98.28;102455.31;5065309;28;20143;-73
2022/04/29 06:02:16;;;;;;;25.83;9.20;;;;;;;9.85;97.54;102454.09;5068335;28;20056;-73
2022/04/29 06:04:43;;;;;;;27.30;9.93;;;;;;;9.91;97.79;102447.19;5068073;28;20084;-72
2022/04/29 06:07:10;;;;;;;25.67;9.55;;;;;;;9.91;97.69;102450.75;5063262;28;20171;-73
2022/04/29 06:09:36;;;;;;;28.77;11.25;;;;;;;10.01;97.42;102444.72;5064643;28;20164;-73
2022/04/29 06:12:04;;;;;;;25.20;10.18;;;;;;;10.09;97.46;102446.56;5069448;28;20055;-73
2022/04/29 06:14:31;;;;;;;26.92;9.57;;;;;;;10.15;97.09;102447.91;5056215;28;20101;-74
2022/04/29 06:16:58;;;;;;;26.27;9.32;;;;;;;10.26;96.38;102457.31;5096199;28;20049;-73
2022/04/29 06:19:24;;;;;;;27.08;10.52;;;;;;;10.37;95.79;102452.09;5065187;28;20053;-74
2022/04/29 06:21:51;;;;;;;27.27;10.13;;;;;;;10.42;95.14;102462.88;5068806;28;20048;-73
2022/04/29 06:24:18;;;;;;;25.17;10.20;;;;;;;10.49;94.29;102463.06;5068420;28;20527;-73
2022/04/29 06:26:44;;;;;;;30.17;10.05;;;;;;;10.52;93.92;102464.34;5067872;28;20130;-73
2022/04/29 06:29:11;;;;;;;29.63;11.68;;;;;;;10.60;93.86;102471.66;5062230;28;20147;-72
2022/04/29 06:31:37;;;;;;;24.35;9.38;;;;;;;10.68;93.44;102471.50;5071038;28;20124;-74
2022/04/29 06:34:04;;;;;;;29.52;10.88;;;;;;;10.69;92.68;102469.53;5063594;28;20048;-73
2022/04/29 06:36:31;;;;;;;25.77;11.43;;;;;;;10.79;92.40;102466.22;5064819;28;20047;-73
2022/04/29 06:38:57;;;;;;;30.00;11.60;;;;;;;10.83;92.03;102458.81;5065530;28;20052;-73
2022/04/29 06:41:24;;;;;;;31.80;11.23;;;;;;;10.93;92.15;102461.06;5066149;28;20056;-74
2022/04/29 06:43:50;;;;;;;28.25;11.18;;;;;;;10.99;91.86;102465.97;5060820;28;20052;-73
2022/04/29 06:46:17;;;;;;;30.58;11.57;;;;;;;11.10;91.01;102469.00;5067407;28;20048;-73
2022/04/29 06:48:45;;;;;;;31.52;11.15;;;;;;;11.13;90.59;102460.78;5066652;28;20052;-72
2022/04/29 06:51:12;;;;;;;25.17;10.18;;;;;;;11.22;90.23;102455.03;5061327;28;20570;-72
2022/04/29 06:53:41;;;;;;;28.27;11.02;;;;;;;11.29;90.01;102458.78;5065670;28;20052;-72
2022/04/29 06:56:09;;;;;;;29.98;11.38;;;;;;;11.33;89.23;102464.41;5069040;28;20056;-72
2022/04/29 06:58:36;;;;;;;24.00;8.82;;;;;;;11.35;89.80;102462.91;5069140;28;20123;-72
2022/04/29 07:01:03;;;;;;;26.10;10.30;;;;;;;11.35;89.32;102464.84;5060755;28;20508;-72
2022/04/29 07:03:29;;;;;;;32.67;10.80;;;;;;;11.41;89.44;102469.75;5057780;28;20056;-73
2022/04/29 07:05:59;;;;;;;27.23;10.57;;;;;;;11.44;89.40;102476.56;5058665;28;20041;-72
2022/04/29 07:08:25;;;;;;;28.00;10.88;;;;;;;11.51;89.09;102477.50;5069299;28;20512;-73
2022/04/29 07:10:52;;;;;;;26.23;9.63;;;;;;;11.56;88.70;102466.16;5054954;28;20041;-73
2022/04/29 07:13:19;;;;;;;24.65;9.85;;;;;;;11.68;88.57;102479.13;5062107;28;20052;-71
2022/04/29 07:15:47;;;;;;;26.30;10.15;;;;;;;11.82;88.88;102484.97;5065009;28;20143;-72
2022/04/29 07:18:15;;;;;;;24.55;9.85;;;;;;;12.01;88.48;102473.88;5066899;28;20080;-72
2022/04/29 07:20:41;;;;;;;28.15;9.48;;;;;;;12.19;88.62;102475.06;5066983;28;20048;-71
2022/04/29 07:23:08;;;;;;;22.92;9.60;;;;;;;12.33;86.83;102464.22;5056438;28;20155;-71
2022/04/29 07:25:35;;;;;;;24.80;9.80;;;;;;;12.48;85.30;102466.09;5063146;28;20047;-74
2022/04/29 07:28:01;;;;;;;22.67;8.63;;;;;;;12.64;84.81;102466.81;5065800;28;20045;-72
2022/04/29 07:30:28;;;;;;;19.65;6.45;;;;;;;12.82;84.03;102459.56;5060111;28;20059;-72
2022/04/29 07:32:54;;;;;;;29.02;10.73;;;;;;;12.88;82.27;102453.34;5063453;28;20058;-73
2022/04/29 07:43:36;;;;;;;26.73;10.27;;;;;;;13.38;78.33;102445.81;5065153;28;20084;-71
2022/04/29 07:46:04;;;;;;;24.75;8.73;;;;;;;13.46;77.55;102444.75;5068988;28;20047;-72
2022/04/29 07:48:31;;;;;;;24.45;10.30;;;;;;;13.60;77.14;102444.97;5063472;28;20060;-72
2022/04/29 07:50:58;;;;;;;27.98;10.13;;;;;;;13.69;76.23;102440.72;5063686;28;20053;-73
2022/04/29 07:53:24;;;;;;;25.67;9.00;;;;;;;13.80;74.83;102438.88;5060256;28;20049;-72
2022/04/29 07:55:52;;;;;;;19.00;7.40;;;;;;;13.81;73.62;102434.09;5066249;28;20067;-70
2022/04/29 07:58:19;;;;;;;22.20;9.60;;;;;;;13.86;73.39;102431.78;5068182;28;20513;-71
2022/04/29 08:00:45;;;;;;;15.32;5.63;;;;;;;13.93;73.62;102431.06;5063196;28;20079;-74
2022/04/29 08:03:32;;;;;;;23.55;8.48;;;;;;;13.99;72.36;102435.94;5061881;28;20080;-72
2022/04/29 08:05:59;;;;;;;24.77;8.65;;;;;;;14.01;72.15;102441.91;5066318;28;20044;-71
2022/04/29 08:08:25;;;;;;;30.13;9.43;;;;;;;13.97;71.87;102432.72;5067756;28;20135;-73
2022/04/29 08:10:53;;;;;;;19.88;8.52;;;;;;;13.94;71.75;102433.47;5068451;28;20049;-72
2022/04/29 08:13:20;;;;;;;27.73;9.15;;;;;;;14.02;71.68;102434.38;5067119;28;20091;-72
2022/04/29 08:15:49;;;;;;;25.48;8.95;;;;;;;14.03;71.90;102430.38;5068583;28;20063;-71
2022/04/29 08:18:17;;;;;;;23.77;8.90;;;;;;;14.09;72.54;102440.81;5064306;28;20636;-70
2022/04/29 08:20:43;;;;;;;24.10;8.18;;;;;;;14.05;72.35;102436.41;5067353;28;20051;-72
2022/04/29 08:23:10;;;;;;;28.20;10.10;;;;;;;14.01;72.26;102438.34;5064033;28;20057;-73
2022/04/29 08:25:37;;;;;;;20.17;8.38;;;;;;;14.05;72.32;102431.63;5066270;28;20105;-72
2022/04/29 08:28:04;;;;;;;24.25;10.05;;;;;;;14.06;72.85;102441.59;5070861;28;20049;-72
2022/04/29 08:30:31;;;;;;;26.00;9.65;;;;;;;13.98;72.38;102428.78;5059762;28;20488;-72
2022/04/29 08:32:59;;;;;;;24.20;8.93;;;;;;;13.93;72.29;102442.19;5069629;28;20095;-72
2022/04/29 08:35:29;;;;;;;23.55;8.95;;;;;;;13.90;71.98;102427.06;5070187;28;20588;-72
2022/04/29 08:37:57;;;;;;;20.05;8.60;;;;;;;13.90;72.16;102432.63;5069222;28;20591;-76
2022/04/29 08:40:25;;;;;;;21.83;9.25;;;;;;;13.92;72.43;102444.19;5067211;28;20057;-73
2022/04/29 08:42:53;;;;;;;25.50;9.30;;;;;;;13.88;72.11;102429.44;5087675;28;20584;-72
2022/04/29 08:45:21;;;;;;;23.92;8.48;;;;;;;13.92;72.45;102430.28;5068263;28;20052;-73
2022/04/29 08:47:47;;;;;;;20.05;8.00;;;;;;;13.96;71.98;102435.88;5075253;28;20060;-74
2022/04/29 08:50:18;;;;;;;24.08;9.52;;;;;;;13.93;72.58;102426.31;5067579;28;20124;-74
2022/04/29 08:52:46;;;;;;;27.00;9.90;;;;;;;14.07;72.24;102440.41;5067081;28;20058;-72
2022/04/29 09:00:45;;;;;;;21.55;8.35;;;;;;;14.29;71.69;102439.50;5073044;28;20059;-72
2022/04/29 09:03:16;;;;;;;20.52;8.73;;;;;;;14.34;70.58;102436.34;5066350;28;20072;-71
2022/04/29 09:05:45;;;;;;;17.60;7.57;;;;;;;14.36;69.54;102444.34;5069310;28;20134;-72
2022/04/29 09:08:14;;;;;;;21.80;8.73;;;;;;;14.42;69.15;102438.06;5065928;28;20143;-72
2022/04/29 09:10:51;;;;;;;21.92;7.30;;;;;;;14.55;70.07;102435.78;5068216;28;20081;-70
2022/04/29 09:13:38;;;;;;;17.38;6.85;;;;;;;14.66;69.18;102442.25;5063006;28;20141;-72
2022/04/29 09:16:07;;;;;;;21.33;7.68;;;;;;;14.71;68.09;102431.56;5063978;28;20143;-72
2022/04/29 09:18:39;;;;;;;19.38;8.10;;;;;;;14.89;67.57;102435.28;5060976;28;20052;-72
2022/04/29 09:21:15;;;;;;;22.98;8.38;;;;;;;15.01;66.96;102431.41;5062754;28;20056;-72
2022/04/29 09:23:42;;;;;;;;;;;;;;;15.19;67.07;102435.94;5065076;28;20131;-71
2022/04/29 09:26:21;;;;;;;21.35;7.57;;;;;;;15.37;66.34;102441.66;5068370;28;20438;-71
2022/04/29 09:28:49;;;;;;;18.67;7.03;;;;;;;15.58;64.90;102447.38;5066533;28;20076;-72
2022/04/29 09:31:16;;;;;;;26.17;7.70;;;;;;;15.75;64.36;102443.06;5070733;28;20107;-72
2022/04/29 09:33:57;;;;;;;26.23;9.10;;;;;;;15.86;62.44;102441.94;5062139;28;20432;-74
2022/04/29 09:36:26;;;;;;;20.80;8.30;;;;;;;16.09;63.02;102438.81;5076770;28;20049;-72
2022/04/29 09:42:00;;;;;;;24.98;7.95;;;;;;;16.29;61.02;102434.50;5067681;28;20052;-69
2022/04/29 09:44:27;;;;;;;27.42;7.18;;;;;;;16.38;61.61;102440.53;5065025;28;20083;-73
2022/04/29 09:46:54;;;;;;;22.27;7.75;;;;;;;16.39;60.39;102444.91;5069479;28;20557;-72
2022/04/29 09:49:26;;;;;;;21.25;8.32;;;;;;;16.34;59.64;102445.31;5066542;28;20051;-72
2022/04/29 09:51:52;;;;;;;19.25;7.78;;;;;;;16.40;58.98;102452.13;5068829;28;20123;-72
2022/04/29 09:54:26;;;;;;;23.80;8.88;;;;;;;16.44;59.66;102444.56;5062888;28;20473;-74
2022/04/29 09:57:04;;;;;;;20.13;7.78;;;;;;;16.45;60.34;102441.38;5066192;28;20148;-73
2022/04/29 09:59:44;;;;;;;23.17;8.68;;;;;;;16.41;60.49;102437.75;5068330;28;20044;-72
2022/04/29 10:02:12;;;;;;;21.08;6.70;;;;;;;16.40;59.52;102441.72;5054752;28;20127;-69
2022/04/29 10:04:44;;;;;;;17.60;7.70;;;;;;;16.43;59.34;102434.59;5063083;28;20056;-71
2022/04/29 10:07:15;;;;;;;21.35;8.10;;;;;;;16.51;59.66;102431.41;5061580;28;20510;-72
2022/04/29 10:09:47;;;;;;;18.50;7.75;;;;;;;16.58;58.89;102434.22;5067242;28;20055;-71
2022/04/29 10:12:16;;;;;;;18.92;7.47;;;;;;;16.58;57.40;102431.44;5067655;28;20086;-73
2022/04/29 10:14:44;;;;;;;21.90;7.15;;;;;;;16.62;57.52;102437.81;5057325;28;20045;-72
2022/04/29 10:22:50;;;;;;;22.23;7.25;;;;;;;16.84;57.51;102439.41;5064073;28;20102;-71
2022/04/29 10:25:20;;;;;;;19.33;6.72;;;;;;;16.91;57.26;102431.03;5067482;28;20052;-73
2022/04/29 10:27:49;;;;;;;19.25;7.43;;;;;;;16.95;57.08;102439.44;5067989;28;20048;-71
2022/04/29 10:30:28;;;;;;;20.42;8.00;;;;;;;16.99;55.77;102429.03;5073701;28;20464;-71
2022/04/29 10:33:02;;;;;;;22.67;7.47;;;;;;;17.09;55.09;102431.03;5067911;28;20111;-70
2022/04/29 10:35:45;;;;;;;20.05;7.53;;;;;;;17.12;54.14;102441.41;5065863;28;20056;-71
2022/04/29 10:38:39;;;;;;;19.70;6.97;;;;;;;17.31;53.76;102441.78;5060612;28;20106;-74
2022/04/29 10:41:23;;;;;;;18.52;6.40;;;;;;;17.45;53.85;102430.59;5068104;28;20056;-72
2022/04/29 10:43:49;;;;;;;21.88;7.05;;;;;;;17.52;53.17;102441.78;5067485;28;20083;-72
2022/04/29 10:46:23;;;;;;;19.25;7.07;;;;;;;17.45;52.23;102439.00;5066688;28;20080;-73
2022/04/29 10:48:52;;;;;;;16.67;6.38;;;;;;;17.47;52.51;102427.41;5067014;28;20052;-72
2022/04/29 10:51:24;;;;;;;22.42;6.78;;;;;;;17.69;52.09;102438.13;5055577;28;20055;-73
2022/04/29 10:53:53;;;;;;;17.25;7.07;;;;;;;17.75;51.51;102435.69;5067902;28;20136;-72
2022/04/29 10:56:26;;;;;;;14.95;6.18;;;;;;;17.82;50.69;102435.72;5068939;28;20102;-74
2022/04/29 10:58:53;;;;;;;16.75;6.35;;;;;;;17.72;50.45;102425.34;5071157;28;20053;-74
2022/04/29 11:01:24;;;;;;;16.08;6.13;;;;;;;17.88;51.53;102429.25;5066010;28;20156;-72
2022/04/29 11:03:51;;;;;;;20.08;7.40;;;;;;;18.06;50.03;102426.41;5067677;28;20175;-73
2022/04/29 11:06:18;;;;;;;17.23;7.15;;;;;;;18.14;49.72;102416.75;5063772;28;20086;-71
2022/04/29 11:08:45;;;;;;;16.52;6.30;;;;;;;18.32;49.17;102419.44;5064056;28;20501;-72
2022/04/29 11:11:12;;;;;;;20.80;6.50;;;;;;;18.56;48.88;102416.50;5068042;28;20084;-72
2022/04/29 11:13:43;;;;;;;20.98;6.40;;;;;;;18.70;48.11;102412.81;5066454;28;20056;-73
2022/04/29 11:16:11;;;;;;;13.80;5.25;;;;;;;18.83;47.19;102414.69;5069479;28;20131;-73
2022/04/29 11:18:40;;;;;;;16.20;6.13;;;;;;;18.92;47.09;102409.41;5073761;28;20142;-73
2022/04/29 11:26:52;;;;;;;15.75;4.85;;;;;;;19.43;45.11;102395.28;5069908;28;20053;-73
2022/04/29 11:29:18;;;;;;;16.92;6.18;;;;;;;19.61;45.84;102398.69;5066276;28;20105;-74
2022/04/29 11:31:45;;;;;;;15.05;5.88;;;;;;;19.75;45.71;102392.13;5067913;28;20087;-73
2022/04/29 11:34:15;;;;;;;16.73;7.22;;;;;;;19.83;44.77;102388.81;5062637;28;20060;-74
2022/04/29 11:36:43;;;;;;;17.13;6.82;;;;;;;19.99;45.25;102389.00;5048235;28;20080;-72
2022/04/29 11:39:12;;;;;;;18.88;6.55;;;;;;;20.01;44.77;102385.75;5067418;28;20599;-73
2022/04/29 11:41:51;;;;;;;18.65;7.13;;;;;;;19.98;44.83;102383.78;5062197;28;20098;-72
2022/04/29 11:44:22;;;;;;;13.45;4.95;;;;;;;20.00;43.91;102378.53;5060399;28;20489;-73
2022/04/29 11:46:51;;;;;;;19.55;5.95;;;;;;;19.92;43.81;102377.06;5067714;28;20049;-74
2022/04/29 11:49:28;;;;;;;13.95;6.65;;;;;;;20.07;43.70;102382.06;5066975;28;20060;-73
2022/04/29 11:51:55;;;;;;;15.90;6.30;;;;;;;20.26;43.75;102375.75;5053849;28;20056;-74
2022/04/29 11:54:21;;;;;;;18.52;7.10;;;;;;;20.41;44.00;102373.53;5061953;28;20053;-74
2022/04/29 11:56:47;;;;;;;18.73;7.28;;;;;;;20.47;43.31;102365.41;5065497;28;20052;-73
2022/04/29 11:59:14;;;;;;;15.20;6.30;;;;;;;20.43;42.99;102368.31;5058408;28;20135;-74